LiveATC.Net - Listen to live air traffic control over the Internet!

Find LiveATC Audio Streams


Airport/ARTCC Code

Frequency Search
(e.g., 124.400, 128.75)
Site-wide search
 


Browse LiveATC Feeds
LiveATC Coverage Map
Top 50 LiveATC Feeds
Bad Weather Areas

LiveATC FAQ
Offer a LiveATC Feed
Contact LiveATC.net
Press Inquiries

LiveATC on iPhone
LiveATC on Android

Windows Phone
Windows 8/10

LiveATC Mobile
(Mobile browser)

ATC Audio Archives
Interesting Recordings

LiveATC Forums

Home Page
About LiveATC.net
Make a Donation
LiveATC Store

Terms of Use
Privacy Policy

Canadian Air Freqs

AIRMETs/SIGMETs

FAA Airport Status
Nat'l Airspace Status
Arrival Demand Charts


Server Software By:
Icecast.org
Liquidsoap


Current Potentially Bad Weather Airports
(updated every 30 minutes - sorted alphabetically by ICAO code)



This page lists LiveATC.net airport areas that may be interesting to listen to because of challenging flying (weather) conditions. Challenging weather conditions include low ceilings, limited visibility, high or gusty winds, or thunderstorms.

Updated: Fri Jul 28 04:40:01 UTC 2017
Click on airport name to go to that airport area's feeds.

Australia - ATC Satellite Feed Sydney International Airport (Sydney, AU-NSW)
WX MAP UNAVAILABLENearest METAR:
YSSY 280400Z 26020KT CAVOK 18/02 Q1015 FM0400 MOD/SEV TURB BLW 5000FT
CYEG Approach Edmonton International Airport (Edmonton, CA-AB)
WX MAP UNAVAILABLENearest METAR:
CYEG 280400Z 36013G18KT 15SM -TSRA SCT040CB BKN080 BKN100 BKN240 14/12 A2993 RMK CB4ACC1ACC2CI1 CI TR CB + CONTUS LTGCGCCIC SE - SW PRESRR SLP140 DENSITY ALT 2900FT
KAPA Gnd/Twr/Denver App Centennial Airport (Denver, US-CO)
kapaNearest METAR:
KAPA 280353Z 22008KT 10SM -DZ FEW090 SCT110 BKN220 22/17 A3018 RMK AO2 RAB38E48DZB48 SLP148 OCNL LTGICCG DSNT SW-W CB DSNT SW-W MOV SE P0000 T02170172
KASE Gnd/Twr Aspen-Pitkin County Airport/Sardy Field (Aspen, US-CO)
kaseNearest METAR:
KASE 280353Z AUTO 22007KT 10SM FEW080 18/09 A3032 RMK AO2 LTG DSNT S SLP131 T01780094
KBAF Ground/Tower Barnes Municipal Airport (Westfield/Springfield, US-MA)
kbafNearest METAR:
KBAF 280353Z AUTO 00000KT 1/4SM R20/1200V1800FT FG VV002 19/19 A2987 RMK AO2 SLP115 T01940194 $
KBGR Del/Gnd/Twr Bangor International Airport (Bangor, US-ME)
kbgrNearest METAR:
KBGR 280424Z 20005KT 1/4SM R15/1600V1800FT FG VV002 16/16 A2979 RMK AO2 T01610156 PNO $
KBLM/N12/3N6/KMJX Old Bridge Airport (Old Bridge, US-NJ)
kmjxNearest METAR:
KMJX 280416Z AUTO 00000KT 10SM BKN029 22/21 A2988 RMK AO2 LTG DSNT E
KBMG Ground/Tower Monroe County Airport (Bloomington, US-IN)
kbmgNearest METAR:
KBMG 280353Z AUTO 00000KT 1 1/4SM BR FEW095 23/22 A2987 RMK AO2 SLP105 T02330217 $
MA/NH/RI/CT Area CTAF Fitchburg Municipal Airport (Fitchburg, US-MA)
koreNearest METAR:
KORE 280408Z AUTO 00000KT 1/4SM FG VV002 16/16 A2988 RMK AO2 T01560156 TSNO
KELP App/Dep El Paso International Airport (El Paso, US-TX)
WX MAP UNAVAILABLENearest METAR:
KELP 280351Z 21004KT 10SM FEW120 SCT250 24/16 A3004 RMK AO2 SLP097 OCNL LTGIC DSNT W T02390156
KEVV Twr/ZID Evansville Regional Airport (Evansville, US-IN)
kevvNearest METAR:
KEVV 280409Z AUTO 00000KT 4SM +RA BR SCT013 BKN028 OVC055 24/23 A2986 RMK AO2 LTG DSNT NE AND E P0006 T02440233 $
KFHU Gnd/Twr/Radar Sierra Vista Municipal Airport-Libby Army Airfield (Fort Huachuca/Sierra Vista, US-AZ)
kfhuNearest METAR:
KFHU 280358Z 28004KT 7SM -RA OVC095 19/18 A3020 RMK LTG DSNT SE-S AND W TSE40 SLP154 P0010
KGTU Gnd/Twr Georgetown Municipal Airport (Georgetown, US-TX)
kgtuNearest METAR:
KGTU 280415Z 17009KT 10SM CLR 31/21 A2996 RMK AO2 SLP299 PWINO FZRANO RVRNO
KGYR Ground Phoenix Goodyear Airport (Goodyear, US-AZ)
kgyrNearest METAR:
KGYR 280347Z 07013G21KT 10SM SCT100 BKN160 BKN200 38/17 A2978 RMK LTG DSNT N LAST
KHUL/KPQI/ZBW01/15 Houlton International Airport (Houlton, US-ME)
khulNearest METAR:
KHUL 280353Z AUTO 22006KT 10SM OVC007 18/17 A2973 RMK AO2 SLP068 T01780172 TSNO
KHYA/KFMH Twr/Cape App Barnstable Municipal Airport-Boardman/Polando Field (Hyannis, US-MA)
kfmhNearest METAR:
KFMH 280415Z AUTO 23010KT 10SM OVC008 20/19 A2989 RMK AO2 FZRANO
KJAX Approach/Departure Jacksonville International Airport (Jacksonville, US-FL)
kjaxNearest METAR:
KJAX 280356Z 15005KT 6SM -TSRA BR FEW011 BKN030CB OVC080 24/24 A2995 RMK AO2 RAE0259B25 SLP143 OCNL LTGIC VC NE-S TS VC NE-S MOV SE P0003 T02440244
KJLN Ground/Tower Joplin Regional Airport (Joplin, US-MO)
kjlnNearest METAR:
KJLN 280419Z AUTO 14004KT 10SM VCTS BKN045 OVC055 26/26 A2993 RMK AO2 LTG DSNT S-NW TSE13 T02610256
KLWM Ground/Tower Lawrence Municipal Airport (Lawrence, US-MA)
klwmNearest METAR:
KLWM 280354Z AUTO 21005KT 6SM BR OVC004 20/19 A2987 RMK AO2 SLP113 T02000189
KMMU ATIS Morristown Municipal Airport (Morristown, US-NJ)
kmmuNearest METAR:
KMMU 280415Z AUTO 00000KT 2 1/2SM BR SCT033 19/19 A2988 RMK AO2 VIS 1 3/4V5
KMRY Del/Gnd/Twr Monterey Peninsula Airport (Monterey, US-CA)
kmryNearest METAR:
KMRY 280354Z AUTO 31003KT 10SM OVC004 14/13 A2994 RMK AO2 SLP152 T01390128
KORH Del/Gnd/Twr Worcester Regional Airport (Worcester, US-MA)
korhNearest METAR:
KORH 280354Z AUTO 24010KT 4SM BR OVC003 18/17 A2989 RMK AO2 SLP121 T01830172
KPKB Gnd/Twr/Unicom Mid-Ohio Valley Regional Airport (Parkersburg, US-WV)
kpkbNearest METAR:
KPKB 280415Z AUTO 17004KT 8SM -RA OVC009 22/21 A2990 RMK AO2 CIG 005V011 P0000 T02170211
KRVS Ground/Tower Richard Lloyd Jones Jr Airport (Tulsa, US-OK)
krvsNearest METAR:
KRVS 280421Z AUTO 20011G27KT 3/4SM +TSRA BR BKN018 OVC060 24/22 A2992 RMK AO2 PK WND 28027/0414 RAB08 TSB0356 P0052 T02440222
KTRK CTAF/Unicom Truckee-Tahoe Airport (Truckee, US-CA)
ktrkNearest METAR:
KTRK 280415Z AUTO 16004KT 10SM CLR 17/06 A3024 RMK AO2 LTG DSNT SE
KTUL Del/Gnd/Twr/App Tulsa International Airport (Tulsa, US-OK)
ktulNearest METAR:
KTUL 280353Z 00000KT 10SM VCTS BKN065CB OVC250 29/25 A2988 RMK AO2 LTG DSNT SW AND W SLP108 OCNL LTGICCG SW TS VC SW MOV SE T02940250
KDMA/KTUS Twr/Ops/ZAB Davis Monthan Air Force Base (Tucson, US-AZ)
ktusNearest METAR:
KTUS 280353Z 12019G32KT 10SM SCT110 27/18 A3000 RMK AO2 PK WND 14040/0317 WSHFT 0307 LTG DSNT S RAB16E44 SLP112 P0000 T02670183
KDMA/KTUS Twr/Ops/ZAB Davis Monthan Air Force Base (Tucson, US-AZ)
kdmaNearest METAR:
KDMA 280402Z AUTO 13013KT 10SM -DZ BKN130 26/19 A2999 RMK AO2 LTG DSNT S DZB02 SLP111 $
KWVI CTAF/NORCAL App #1 Watsonville Municipal Airport (Watsonville, US-CA)
kwviNearest METAR:
KWVI 280356Z AUTO VRB03KT 3SM BR OVC003 13/13 A2994 RMK AO2 T01280128
LUKK Control Chisinau International Airport (Chisinau, Moldova)
WX MAP UNAVAILABLENearest METAR:
LUKK 280400Z 02009KT 2000 R08/2000U VCTS SHRA SCT004 BKN031CB 19/18 Q1003 R08/290199 TEMPO 2100 TSRA BKN008 BKN015CB
MMGL Twr/App Don Miguel Hidalgo y Costilla International (Guadalajara, Mexico)
WX MAP UNAVAILABLENearest METAR:
MMGL 280352Z 31005KT 7SM -RA SCT020CB OVC080 16/15 A3027 RMK 63695 8/96/ +TSRA E38 -RA B38 LTG
MMHO App/Dep Hermosillo International Airport (Hermosillo, Mexico)
WX MAP UNAVAILABLENearest METAR:
MMHO 280344Z 13012KT 2SM TSRA BKN015CB OVC070 25/24 A2998 RMK 60065 8/36/ LTGICCG
SBPA Gnd/Twr/App Salgado Filho International Airport (Porto Alegre, Brazil)
WX MAP UNAVAILABLENearest METAR:
SBPA 280400Z 09005KT 0500 R29/0800 R11/0800 FG BKN001 OVC004 15/15 Q1022
WMKB Radar Butterworth Airport (Penang, Malaysia)
WX MAP UNAVAILABLENearest METAR:
WMKB 280400Z 30007KT 250V350 7000 FEW017CB SCT140 BKN270 31/27 Q1011 TEMPO 5000 TSRA
WMKP Tower Penang International Airport (Penang, Malaysia)
WX MAP UNAVAILABLENearest METAR:
WMKP 280400Z 21005KT 7000 FEW017CB SCT140 BKN270 31/26 Q1011 TEMPO 6000 -TSRA
YPPH Approach Perth International Airport (Perth, AU-WA)
WX MAP UNAVAILABLENearest METAR:
YPPH 280400Z 28017G27KT 9999 FEW030 BKN052 17/08 Q1009 FM0400 28018G30KT 9999 -SHRA SCT035 INTER 0400/0700 27025G40KT 4000 SHRA SCT015